createdAt,value
2017-12-25T00:01:12.029Z,72.00
2017-12-25T00:03:40.208Z,72.00
2017-12-25T00:06:08.378Z,72.00
2017-12-25T00:08:36.566Z,71.90
2017-12-25T00:11:04.737Z,71.80
2017-12-25T00:13:32.880Z,72.00
2017-12-25T00:16:00.985Z,72.10
2017-12-25T00:18:29.171Z,71.90
2017-12-25T00:20:57.292Z,72.00
2017-12-25T00:23:25.483Z,71.90
2017-12-25T00:25:54.407Z,71.50
2017-12-25T00:28:22.546Z,71.50
2017-12-25T00:30:51.150Z,71.60
2017-12-25T00:33:19.302Z,71.50
2017-12-25T00:35:48.166Z,71.20
2017-12-25T00:38:16.365Z,71.20
2017-12-25T00:40:45.226Z,71.40
2017-12-25T00:43:14.249Z,71.40
2017-12-25T00:45:42.357Z,71.40
2017-12-25T00:48:10.596Z,71.60
2017-12-25T00:50:39.479Z,71.40
2017-12-25T00:53:07.657Z,71.50
2017-12-25T00:55:36.545Z,71.40
2017-12-25T00:58:04.718Z,71.40
2017-12-25T01:00:33.612Z,71.10
2017-12-25T01:03:01.723Z,71.10
2017-12-25T01:05:29.864Z,70.80
2017-12-25T01:07:58.035Z,71.10
2017-12-25T01:10:26.151Z,71.30
2017-12-25T01:12:54.388Z,71.30
2017-12-25T01:15:22.543Z,71.20
2017-12-25T01:17:51.425Z,71.50
2017-12-25T01:20:19.561Z,71.50
2017-12-25T01:22:47.677Z,71.20
2017-12-25T01:25:15.839Z,71.40
2017-12-25T01:27:44.696Z,71.60
2017-12-25T01:30:15.147Z,71.80
2017-12-25T01:32:43.340Z,71.80
2017-12-25T01:35:12.205Z,71.70
2017-12-25T01:37:41.123Z,71.90
2017-12-25T01:40:10.112Z,71.80
2017-12-25T01:42:38.220Z,71.80
2017-12-25T01:45:06.348Z,72.00
2017-12-25T01:47:34.631Z,71.80
2017-12-25T01:50:02.739Z,71.80
2017-12-25T01:52:30.869Z,71.80
2017-12-25T01:54:59.041Z,71.70
2017-12-25T01:57:28.142Z,71.70
2017-12-25T02:02:52.091Z,71.90
2017-12-25T02:05:46.770Z,72.00
2017-12-25T02:08:29.647Z,72.20
2017-12-25T02:10:57.782Z,72.10
2017-12-25T02:13:26.679Z,72.10
2017-12-25T02:15:55.598Z,72.10
2017-12-25T02:18:23.725Z,72.10
2017-12-25T02:20:51.861Z,72.00
2017-12-25T02:23:20.016Z,71.90
2017-12-25T02:25:48.118Z,71.90
2017-12-25T02:28:16.260Z,72.00
2017-12-25T02:30:44.379Z,72.20
2017-12-25T02:33:12.500Z,71.90
2017-12-25T02:35:40.621Z,72.10
2017-12-25T02:38:08.852Z,72.20
2017-12-25T02:40:36.956Z,72.10
2017-12-25T02:43:05.083Z,72.50
2017-12-25T02:45:33.269Z,72.40
2017-12-25T02:48:01.370Z,72.40
2017-12-25T02:50:29.613Z,72.30
2017-12-25T02:52:58.499Z,71.70
2017-12-25T02:55:26.616Z,71.70
2017-12-25T02:57:54.751Z,71.60
2017-12-25T03:00:22.922Z,71.90
2017-12-25T03:02:51.094Z,72.40
2017-12-25T03:05:20.186Z,72.60
2017-12-25T03:07:49.759Z,72.50
2017-12-25T03:10:18.652Z,72.70
2017-12-25T03:12:47.582Z,73.10
2017-12-25T03:15:15.845Z,73.00
2017-12-25T03:17:44.709Z,73.50
2017-12-25T03:20:13.626Z,72.90
2017-12-25T03:22:41.800Z,72.90
2017-12-25T03:25:10.661Z,72.60
2017-12-25T03:27:39.560Z,72.50
2017-12-25T03:30:07.695Z,72.50
2017-12-25T03:32:35.827Z,72.70
2017-12-25T03:35:04.005Z,72.50
2017-12-25T03:37:32.897Z,72.80
2017-12-25T03:40:01.010Z,72.80
2017-12-25T03:42:29.125Z,73.00
2017-12-25T03:44:57.262Z,73.10
2017-12-25T03:47:25.484Z,73.20
2017-12-25T03:49:54.358Z,72.80
2017-12-25T03:52:22.483Z,72.70
2017-12-25T03:54:50.604Z,73.00
2017-12-25T03:57:18.735Z,72.70
2017-12-25T03:59:46.868Z,72.90
2017-12-25T04:02:15.008Z,73.00
2017-12-25T04:04:43.894Z,72.80
2017-12-25T04:07:12.915Z,72.60
2017-12-25T04:09:41.041Z,72.60
2017-12-25T04:12:09.167Z,72.20
2017-12-25T04:14:37.290Z,72.20
2017-12-25T04:17:06.221Z,72.00
2017-12-25T04:19:35.110Z,72.40
2017-12-25T04:22:03.284Z,72.50
2017-12-25T04:24:32.173Z,72.70
2017-12-25T04:27:01.059Z,73.20
2017-12-25T04:29:29.199Z,73.10
2017-12-25T04:31:57.411Z,73.30
2017-12-25T04:34:26.275Z,72.50
2017-12-25T04:36:54.401Z,72.50
2017-12-25T04:39:22.646Z,72.70
2017-12-25T04:41:51.504Z,72.00
2017-12-25T04:44:20.411Z,72.40
2017-12-25T04:46:48.617Z,71.70
2017-12-25T04:49:16.749Z,72.20
2017-12-25T04:51:45.617Z,72.30
2017-12-25T04:54:13.746Z,72.30
2017-12-25T04:56:41.875Z,72.60
2017-12-25T04:59:10.797Z,72.20
2017-12-25T05:01:39.684Z,72.30
2017-12-25T05:04:07.859Z,72.40
2017-12-25T05:06:36.716Z,72.20
2017-12-25T05:09:05.627Z,72.30
2017-12-25T05:11:33.763Z,72.40
2017-12-25T05:14:01.983Z,72.00
2017-12-25T05:16:30.847Z,72.30
2017-12-25T05:18:59.755Z,72.10
2017-12-25T05:21:27.875Z,72.10
2017-12-25T05:23:56.110Z,72.00
2017-12-25T05:26:24.988Z,72.20
2017-12-25T05:28:53.378Z,72.20
2017-12-25T05:31:22.253Z,71.90
2017-12-25T05:33:50.439Z,72.00
2017-12-25T05:36:19.294Z,72.60
2017-12-25T05:38:48.219Z,72.20
2017-12-25T05:41:17.087Z,71.90
2017-12-25T05:43:45.237Z,71.90
2017-12-25T05:46:13.453Z,71.90
2017-12-25T05:48:42.311Z,72.50
2017-12-25T05:51:11.235Z,72.30
2017-12-25T05:53:40.125Z,72.50
2017-12-25T05:56:08.994Z,72.20
2017-12-25T05:58:37.123Z,72.20
2017-12-25T06:01:05.362Z,72.50
2017-12-25T06:03:33.460Z,72.80
2017-12-25T06:06:01.591Z,72.80
2017-12-25T06:08:29.732Z,72.50
2017-12-25T06:10:57.855Z,72.40
2017-12-25T06:13:25.984Z,72.50
2017-12-25T06:15:54.921Z,72.20
2017-12-25T06:18:23.048Z,72.20
2017-12-25T06:20:51.934Z,71.90
2017-12-25T06:23:20.155Z,71.90
2017-12-25T06:25:48.265Z,71.60
2017-12-25T06:28:16.492Z,71.00
2017-12-25T06:30:45.489Z,71.40
2017-12-25T06:33:13.668Z,71.40
2017-12-25T06:35:41.831Z,71.20
2017-12-25T06:38:10.727Z,72.00
2017-12-25T06:40:38.905Z,71.90
2017-12-25T06:43:07.022Z,71.90
2017-12-25T06:45:35.350Z,72.00
2017-12-25T06:48:03.463Z,72.20
2017-12-25T06:50:31.596Z,72.10
2017-12-25T06:52:59.715Z,72.20
2017-12-25T06:55:27.838Z,72.10
2017-12-25T06:57:55.976Z,72.50
2017-12-25T07:00:24.872Z,72.40
2017-12-25T07:02:52.998Z,72.50
2017-12-25T07:05:21.135Z,73.00
2017-12-25T07:07:49.307Z,73.30
2017-12-25T07:10:18.172Z,72.80
2017-12-25T07:12:47.070Z,73.40
2017-12-25T07:15:15.263Z,73.50
2017-12-25T07:17:43.436Z,73.60
2017-12-25T07:20:11.530Z,73.10
2017-12-25T07:22:39.679Z,73.30
2017-12-25T07:25:07.833Z,73.60
2017-12-25T07:27:36.740Z,72.70
2017-12-25T07:30:05.733Z,72.30
2017-12-25T07:32:34.624Z,72.80
2017-12-25T07:35:02.807Z,72.80
2017-12-25T07:37:30.970Z,72.70
2017-12-25T07:39:59.085Z,72.70
2017-12-25T07:42:27.220Z,72.20
2017-12-25T07:44:55.350Z,72.00
2017-12-25T07:47:24.244Z,71.80
2017-12-25T07:49:53.135Z,71.80
2017-12-25T07:52:21.338Z,71.80
2017-12-25T07:54:49.512Z,72.20
2017-12-25T07:57:17.605Z,72.10
2017-12-25T07:59:45.856Z,71.80
2017-12-25T08:02:14.755Z,71.60
2017-12-25T08:04:42.870Z,71.60
2017-12-25T08:07:10.988Z,71.10
2017-12-25T08:09:39.127Z,70.90
2017-12-25T08:12:08.011Z,71.10
2017-12-25T08:14:36.955Z,70.80
2017-12-25T08:17:05.062Z,70.80
2017-12-25T08:19:33.205Z,70.60
2017-12-25T08:22:01.359Z,70.30
2017-12-25T08:24:30.248Z,69.90
2017-12-25T08:26:59.141Z,69.40
2017-12-25T08:29:27.250Z,69.30
2017-12-25T08:31:55.382Z,70.00
2017-12-25T08:34:23.556Z,69.70
2017-12-25T08:36:52.420Z,68.80
2017-12-25T08:39:21.334Z,69.10
2017-12-25T08:41:49.506Z,69.10
2017-12-25T08:44:18.398Z,69.40
2017-12-25T08:46:47.287Z,69.00
2017-12-25T08:49:16.148Z,69.00
2017-12-25T08:51:45.066Z,69.70
2017-12-25T08:54:13.182Z,69.70
2017-12-25T08:56:41.309Z,69.30
2017-12-25T08:59:09.484Z,69.10
2017-12-25T09:01:38.341Z,69.20
2017-12-25T09:04:07.298Z,69.20
2017-12-25T09:06:36.256Z,68.80
2017-12-25T09:09:05.153Z,68.90
2017-12-25T09:11:33.251Z,69.00
2017-12-25T09:14:01.388Z,69.10
2017-12-25T09:16:29.509Z,69.10
2017-12-25T09:18:57.632Z,69.20
2017-12-25T09:21:25.807Z,69.30
2017-12-25T09:23:53.921Z,69.30
2017-12-25T09:26:22.061Z,68.70
2017-12-25T09:28:51.051Z,69.10
2017-12-25T09:31:19.171Z,69.20
2017-12-25T09:33:47.304Z,68.80
2017-12-25T09:36:15.444Z,68.90
2017-12-25T09:38:43.581Z,68.50
2017-12-25T09:41:11.694Z,68.50
2017-12-25T09:43:40.597Z,67.70
2017-12-25T09:46:09.494Z,67.50
2017-12-25T09:48:37.691Z,67.50
2017-12-25T09:51:05.826Z,67.30
2017-12-25T09:53:34.733Z,66.70
2017-12-25T09:56:03.661Z,66.40
2017-12-25T09:58:31.766Z,66.50
2017-12-25T10:01:01.401Z,66.70
2017-12-25T10:03:29.534Z,66.60
2017-12-25T10:05:57.661Z,66.70
2017-12-25T10:08:25.841Z,65.90
2017-12-25T10:10:54.110Z,66.60
2017-12-25T10:13:22.284Z,66.30
2017-12-25T10:15:51.273Z,66.90
2017-12-25T10:18:20.163Z,66.90
2017-12-25T10:20:48.342Z,66.90
2017-12-25T10:23:16.512Z,67.60
2017-12-25T10:25:45.375Z,66.90
2017-12-25T10:28:14.294Z,66.80
2017-12-25T10:30:42.431Z,66.80
2017-12-25T10:33:10.534Z,66.10
2017-12-25T10:35:38.714Z,65.60
2017-12-25T10:38:07.759Z,66.30
2017-12-25T10:40:35.869Z,65.80
2017-12-25T10:43:04.012Z,65.20
2017-12-25T10:45:32.894Z,66.00
2017-12-25T10:48:01.785Z,66.00
2017-12-25T10:50:30.676Z,65.90
2017-12-25T10:52:58.823Z,65.80
2017-12-25T10:55:26.964Z,65.20
2017-12-25T10:57:55.091Z,65.60
2017-12-25T11:00:28.886Z,64.80
2017-12-25T11:02:57.041Z,64.30
2017-12-25T11:05:25.177Z,64.20
2017-12-25T11:07:53.294Z,62.70
2017-12-25T11:10:21.403Z,62.80
2017-12-25T11:12:50.339Z,62.30
2017-12-25T11:15:18.475Z,62.30
2017-12-25T11:17:47.423Z,60.80
2017-12-25T11:20:15.650Z,60.80
2017-12-25T11:22:44.642Z,59.00
2017-12-25T11:25:13.530Z,58.60
2017-12-25T11:27:41.636Z,58.60
2017-12-25T11:30:09.764Z,57.50
2017-12-25T11:32:37.892Z,56.50
2017-12-25T11:35:06.030Z,55.70
2017-12-25T11:37:34.209Z,54.80
2017-12-25T11:40:02.342Z,53.90
2017-12-25T11:42:31.255Z,52.60
2017-12-25T11:44:59.351Z,52.50
2017-12-25T11:47:27.480Z,51.00
2017-12-25T11:49:55.608Z,48.50
2017-12-25T11:52:24.039Z,46.80
2017-12-25T11:54:52.159Z,46.40
2017-12-25T11:57:20.307Z,45.20
2017-12-25T11:59:48.434Z,44.40
2017-12-25T12:02:17.329Z,41.20
2017-12-25T12:04:46.259Z,40.30
2017-12-25T12:07:14.356Z,40.10
2017-12-25T12:09:42.597Z,38.30
2017-12-25T12:12:11.487Z,36.90
2017-12-25T12:14:39.872Z,36.80
2017-12-25T12:17:08.039Z,35.00
2017-12-25T12:19:36.952Z,33.50
2017-12-25T12:22:05.082Z,33.40
2017-12-25T12:24:33.223Z,33.60
2017-12-25T12:27:01.338Z,33.90
2017-12-25T12:29:29.481Z,34.10
2017-12-25T12:31:58.549Z,34.30
2017-12-25T12:34:26.685Z,34.30
2017-12-25T12:36:57.213Z,34.50
2017-12-25T12:39:25.616Z,34.30
2017-12-25T12:41:53.750Z,33.90
2017-12-25T12:44:21.934Z,33.20
2017-12-25T12:46:50.827Z,34.20
2017-12-25T12:49:18.999Z,34.10
2017-12-25T12:51:47.168Z,33.70
2017-12-25T12:54:15.342Z,34.10
2017-12-25T12:56:44.609Z,36.70
2017-12-25T12:59:13.534Z,39.20
2017-12-25T13:01:42.419Z,40.70
2017-12-25T13:04:10.551Z,40.70
2017-12-25T13:06:39.455Z,40.80
2017-12-25T13:09:08.377Z,40.60
2017-12-25T13:11:36.510Z,40.60
2017-12-25T13:14:05.405Z,40.60
2017-12-25T13:16:34.326Z,40.10
2017-12-25T13:19:02.440Z,40.10
2017-12-25T13:21:30.671Z,40.70
2017-12-25T13:23:58.798Z,41.60
2017-12-25T13:26:27.835Z,41.90
2017-12-25T13:28:56.014Z,41.30
2017-12-25T13:31:24.142Z,39.70
2017-12-25T13:33:53.057Z,37.00
2017-12-25T13:36:21.192Z,36.90
2017-12-25T13:38:49.427Z,35.20
2017-12-25T13:41:18.317Z,35.70
2017-12-25T13:43:46.481Z,35.60
2017-12-25T13:46:14.629Z,36.90
2017-12-25T13:48:43.506Z,41.30
2017-12-25T13:51:12.441Z,44.00
2017-12-25T13:53:40.559Z,43.30
2017-12-25T13:56:09.841Z,49.20
2017-12-25T13:58:37.977Z,49.60
2017-12-25T14:01:06.113Z,50.70
2017-12-25T14:03:35.077Z,53.00
2017-12-25T14:06:03.135Z,53.00
2017-12-25T14:08:31.388Z,53.60
2017-12-25T14:10:59.501Z,54.40
2017-12-25T14:13:27.736Z,55.00
2017-12-25T14:15:55.831Z,55.60
2017-12-25T14:18:23.963Z,56.00
2017-12-25T14:20:52.251Z,56.50
2017-12-25T14:23:20.356Z,57.00
2017-12-25T14:25:48.605Z,57.40
2017-12-25T14:28:16.769Z,57.60
2017-12-25T14:30:44.871Z,58.00
2017-12-25T14:33:13.057Z,58.40
2017-12-25T14:35:41.186Z,58.60
2017-12-25T14:38:09.324Z,58.90
2017-12-25T14:40:37.479Z,59.20
2017-12-25T14:43:07.138Z,59.90
2017-12-25T14:45:36.038Z,60.00
2017-12-25T14:48:04.247Z,60.00
2017-12-25T14:50:32.353Z,60.20
2017-12-25T14:53:01.263Z,60.40
2017-12-25T14:55:29.363Z,60.40
2017-12-25T14:57:57.505Z,60.80
2017-12-25T15:00:26.357Z,61.00
2017-12-25T15:02:55.289Z,61.30
2017-12-25T15:05:23.405Z,61.20
2017-12-25T15:07:51.536Z,61.30
2017-12-25T15:10:19.663Z,61.60
2017-12-25T15:12:48.594Z,62.00
2017-12-25T15:15:16.764Z,62.00
2017-12-25T15:17:45.670Z,62.20
2017-12-25T15:20:13.791Z,62.20
2017-12-25T15:22:42.707Z,62.60
2017-12-25T15:25:10.850Z,62.60
2017-12-25T15:27:40.563Z,62.90
2017-12-25T15:30:09.499Z,63.00
2017-12-25T15:32:37.664Z,62.90
2017-12-25T15:35:05.953Z,63.20
2017-12-25T15:37:34.119Z,63.10
2017-12-25T15:40:02.226Z,63.40
2017-12-25T15:42:30.464Z,63.50
2017-12-25T15:44:58.578Z,63.30
2017-12-25T15:47:26.794Z,63.50
2017-12-25T15:49:54.941Z,63.60
2017-12-25T15:52:23.844Z,63.80
2017-12-25T15:54:52.754Z,64.00
2017-12-25T15:57:21.634Z,64.30
2017-12-25T15:59:49.757Z,64.30
2017-12-25T16:02:17.944Z,64.20
2017-12-25T16:04:46.887Z,64.20
2017-12-25T16:07:15.054Z,64.20
2017-12-25T16:09:43.921Z,64.60
2017-12-25T16:12:12.099Z,64.50
2017-12-25T16:14:41.033Z,64.70
2017-12-25T16:17:09.180Z,64.70
2017-12-25T16:19:38.101Z,64.60
2017-12-25T16:22:06.270Z,65.30
2017-12-25T16:24:34.473Z,64.90
2017-12-25T16:27:02.589Z,64.70
2017-12-25T16:29:30.772Z,64.70
2017-12-25T16:31:58.935Z,64.70
2017-12-25T16:34:27.822Z,64.90
2017-12-25T16:36:56.143Z,64.80
2017-12-25T16:39:24.309Z,65.00
2017-12-25T16:41:52.445Z,65.00
2017-12-25T16:44:20.604Z,64.60
2017-12-25T16:46:48.792Z,64.90
2017-12-25T16:49:17.684Z,65.20
2017-12-25T16:51:45.817Z,65.20
2017-12-25T16:54:14.744Z,65.20
2017-12-25T16:56:42.961Z,65.20
2017-12-25T16:59:11.103Z,65.00
2017-12-25T17:01:39.231Z,64.90
2017-12-25T17:04:08.140Z,65.20
2017-12-25T17:06:36.275Z,65.20
2017-12-25T17:09:04.500Z,65.20
2017-12-25T17:11:32.610Z,65.20
2017-12-25T17:14:02.281Z,65.10
2017-12-25T17:16:30.381Z,65.10
2017-12-25T17:18:58.622Z,65.20
2017-12-25T17:21:27.515Z,65.40
2017-12-25T17:23:56.509Z,65.40
2017-12-25T17:26:24.619Z,65.40
2017-12-25T17:28:52.750Z,65.30
2017-12-25T17:31:20.923Z,65.20
2017-12-25T17:33:49.783Z,65.20
2017-12-25T17:36:18.698Z,65.10
2017-12-25T17:38:46.957Z,65.10
2017-12-25T17:41:15.083Z,65.20
2017-12-25T17:43:43.321Z,65.10
2017-12-25T17:46:12.182Z,65.30
2017-12-25T17:48:41.098Z,65.20
2017-12-25T17:51:09.247Z,65.30
2017-12-25T17:53:38.142Z,65.10
2017-12-25T17:56:07.032Z,65.20
2017-12-25T17:58:35.249Z,65.20
2017-12-25T18:01:03.395Z,65.10
2017-12-25T18:03:32.393Z,65.30
2017-12-25T18:06:01.386Z,65.40
2017-12-25T18:08:30.277Z,65.40
2017-12-25T18:10:58.399Z,65.30
2017-12-25T18:13:26.553Z,65.30
2017-12-25T18:15:54.794Z,65.10
2017-12-25T18:18:23.786Z,65.20
2017-12-25T18:20:52.655Z,65.20
2017-12-25T18:23:20.804Z,65.30
2017-12-25T18:25:48.947Z,65.10
2017-12-25T18:28:17.069Z,65.00
2017-12-25T18:30:45.267Z,65.10
2017-12-25T18:33:14.258Z,65.30
2017-12-25T18:35:42.430Z,65.30
2017-12-25T18:38:11.320Z,65.40
2017-12-25T18:40:40.197Z,65.50
2017-12-25T18:43:08.386Z,65.40
2017-12-25T18:45:37.261Z,65.30
2017-12-25T18:48:06.166Z,65.40
2017-12-25T18:50:34.313Z,65.40
2017-12-25T18:53:03.238Z,65.50
2017-12-25T18:55:31.347Z,65.50
2017-12-25T18:57:59.480Z,65.40
2017-12-25T19:00:27.625Z,65.30
2017-12-25T19:02:55.767Z,65.40
2017-12-25T19:05:23.919Z,65.60
2017-12-25T19:07:52.174Z,65.50
2017-12-25T19:10:20.445Z,65.40
2017-12-25T19:12:48.620Z,65.40
2017-12-25T19:15:16.719Z,65.40
2017-12-25T19:17:44.881Z,65.50
2017-12-25T19:20:13.004Z,65.60
2017-12-25T19:22:41.918Z,65.40
2017-12-25T19:25:10.088Z,65.40
2017-12-25T19:27:38.218Z,65.30
2017-12-25T19:30:06.349Z,65.30
2017-12-25T19:32:34.499Z,65.00
2017-12-25T19:35:03.373Z,65.00
2017-12-25T19:37:31.568Z,64.90
2017-12-25T19:40:00.488Z,65.10
2017-12-25T19:42:28.624Z,65.10
2017-12-25T19:44:56.782Z,65.30
2017-12-25T19:47:24.906Z,65.10
2017-12-25T19:49:53.057Z,65.30
2017-12-25T19:52:21.229Z,65.50
2017-12-25T19:54:49.392Z,65.50
2017-12-25T19:57:18.391Z,65.50
2017-12-25T19:59:46.500Z,65.50
2017-12-25T20:02:14.628Z,65.70
2017-12-25T20:04:42.804Z,65.70
2017-12-25T20:07:11.690Z,65.70
2017-12-25T20:09:40.695Z,65.30
2017-12-25T20:12:08.814Z,65.40
2017-12-25T20:14:37.081Z,65.30
2017-12-25T20:17:05.205Z,65.10
2017-12-25T20:19:34.094Z,64.90
2017-12-25T20:22:02.218Z,65.00
2017-12-25T20:24:30.440Z,65.10
2017-12-25T20:26:59.356Z,65.40
2017-12-25T20:29:27.500Z,65.40
2017-12-25T20:31:56.386Z,65.40
2017-12-25T20:34:24.526Z,65.30
2017-12-25T20:36:52.761Z,65.30
2017-12-25T20:39:20.875Z,65.10
2017-12-25T20:41:49.774Z,65.00
2017-12-25T20:44:18.719Z,65.10
2017-12-25T20:46:46.881Z,65.20
2017-12-25T20:49:14.984Z,64.80
2017-12-25T20:51:43.140Z,64.80
2017-12-25T20:54:11.279Z,64.80
2017-12-25T20:56:39.410Z,64.40
2017-12-25T20:59:07.628Z,64.50
2017-12-25T21:01:36.497Z,64.50
2017-12-25T21:04:04.688Z,64.50
2017-12-25T21:06:33.681Z,64.50
2017-12-25T21:09:02.559Z,64.50
2017-12-25T21:11:30.690Z,64.50
2017-12-25T21:13:58.845Z,64.70
2017-12-25T21:16:26.988Z,64.80
2017-12-25T21:18:55.849Z,65.20
2017-12-25T21:21:24.755Z,65.40
2017-12-25T21:23:52.888Z,65.40
2017-12-25T21:26:21.087Z,65.40
2017-12-25T21:28:49.980Z,65.10
2017-12-25T21:31:18.996Z,65.20
2017-12-25T21:33:47.989Z,65.40
2017-12-25T21:36:17.448Z,65.70
2017-12-25T21:38:45.608Z,65.70
2017-12-25T21:41:13.733Z,66.00
2017-12-25T21:43:41.859Z,65.30
2017-12-25T21:46:10.148Z,65.20
2017-12-25T21:48:38.362Z,65.10
2017-12-25T21:51:06.531Z,64.90
2017-12-25T21:53:35.924Z,65.40
2017-12-25T21:56:04.070Z,65.50
2017-12-25T21:58:33.004Z,65.90
2017-12-25T22:01:01.140Z,65.90
2017-12-25T22:03:30.033Z,65.50
2017-12-25T22:05:59.152Z,65.60
2017-12-25T22:08:28.041Z,65.40
2017-12-25T22:10:56.217Z,65.40
2017-12-25T22:13:24.363Z,65.50
2017-12-25T22:15:53.267Z,65.50
2017-12-25T22:18:22.178Z,65.00
2017-12-25T22:20:50.295Z,65.00
2017-12-25T22:23:18.464Z,65.00
2017-12-25T22:25:46.580Z,65.20
2017-12-25T22:28:14.866Z,65.10
2017-12-25T22:30:43.138Z,65.20
2017-12-25T22:33:11.309Z,65.00
2017-12-25T22:35:40.176Z,65.50
2017-12-25T22:38:09.094Z,65.40
2017-12-25T22:40:37.226Z,65.40
2017-12-25T22:43:06.156Z,65.40
2017-12-25T22:45:34.253Z,65.40
2017-12-25T22:48:02.511Z,65.30
2017-12-25T22:50:30.630Z,65.20
2017-12-25T22:52:58.788Z,65.20
2017-12-25T22:55:26.965Z,65.10
2017-12-25T22:57:55.195Z,65.00
2017-12-25T23:00:23.354Z,64.70
2017-12-25T23:02:51.541Z,64.50
2017-12-25T23:05:19.718Z,64.70
2017-12-25T23:07:47.891Z,65.00
2017-12-25T23:10:16.020Z,64.90
2017-12-25T23:12:44.896Z,64.90
2017-12-25T23:15:13.027Z,64.90
2017-12-25T23:17:41.190Z,64.90
2017-12-25T23:20:09.295Z,64.80
2017-12-25T23:22:37.443Z,64.80
2017-12-25T23:25:05.575Z,64.60
2017-12-25T23:27:34.486Z,64.80
2017-12-25T23:30:02.608Z,64.90
2017-12-25T23:32:30.841Z,65.00
2017-12-25T23:34:59.705Z,65.10
2017-12-25T23:37:28.613Z,65.40
2017-12-25T23:39:56.807Z,65.40
2017-12-25T23:42:24.946Z,65.80
2017-12-25T23:44:53.857Z,65.70
2017-12-25T23:47:21.970Z,65.70
2017-12-25T23:49:50.115Z,65.40
2017-12-25T23:52:18.236Z,65.00
2017-12-25T23:54:47.209Z,64.80
2017-12-25T23:57:15.355Z,64.80
2017-12-25T23:59:43.506Z,64.70
